sensor_id;sensor_type;location;lat;lon;timestamp;pressure;altitude;pressure_sealevel;temperature;humidity
5679;BME280;2862;52.560;13.566;2024-01-15T00:04:06;98458.09;;;2.11;100.00
5679;BME280;2862;52.560;13.566;2024-01-15T00:14:11;98428.84;;;2.14;100.00
5679;BME280;2862;52.560;13.566;2024-01-15T00:24:16;98415.28;;;1.98;100.00
5679;BME280;2862;52.560;13.566;2024-01-15T00:34:21;98386.84;;;1.92;100.00
5679;BME280;2862;52.560;13.566;2024-01-15T00:44:23;98378.41;;;1.98;100.00
5679;BME280;2862;52.560;13.566;2024-01-15T00:54:27;98364.38;;;1.97;100.00
5679;BME280;2862;52.560;13.566;2024-01-15T01:04:31;98362.44;;;1.90;100.00
5679;BME280;2862;52.560;13.566;2024-01-15T01:14:35;98334.34;;;1.79;100.00
5679;BME280;2862;52.560;13.566;2024-01-15T01:24:38;98354.34;;;1.60;100.00
5679;BME280;2862;52.560;13.566;2024-01-15T01:34:42;98347.59;;;1.47;100.00
5679;BME280;2862;52.560;13.566;2024-01-15T01:44:45;98345.75;;;1.58;100.00
5679;BME280;2862;52.560;13.566;2024-01-15T01:54:50;98333.25;;;1.60;100.00
5679;BME280;2862;52.560;13.566;2024-01-15T02:04:54;98344.13;;;1.67;100.00
5679;BME280;2862;52.560;13.566;2024-01-15T02:14:58;98341.06;;;1.62;100.00
5679;BME280;2862;52.560;13.566;2024-01-15T02:25:03;98328.09;;;1.49;100.00
5679;BME280;2862;52.560;13.566;2024-01-15T02:35:07;98332.66;;;1.47;100.00
5679;BME280;2862;52.560;13.566;2024-01-15T02:45:11;98308.25;;;1.45;100.00
5679;BME280;2862;52.560;13.566;2024-01-15T02:55:14;98318.91;;;1.44;100.00
5679;BME280;2862;52.560;13.566;2024-01-15T03:05:19;98315.56;;;1.63;100.00
5679;BME280;2862;52.560;13.566;2024-01-15T03:15:22;98287.41;;;1.63;100.00
5679;BME280;2862;52.560;13.566;2024-01-15T03:25:26;98294.22;;;1.66;100.00
5679;BME280;2862;52.560;13.566;2024-01-15T03:35:29;98285.75;;;1.62;100.00
5679;BME280;2862;52.560;13.566;2024-01-15T03:45:34;98268.81;;;1.55;100.00
5679;BME280;2862;52.560;13.566;2024-01-15T03:55:36;98254.25;;;1.60;100.00
5679;BME280;2862;52.560;13.566;2024-01-15T04:05:40;98237.22;;;1.65;100.00
5679;BME280;2862;52.560;13.566;2024-01-15T04:15:43;98240.06;;;1.73;100.00
5679;BME280;2862;52.560;13.566;2024-01-15T04:25:48;98230.88;;;1.67;100.00
5679;BME280;2862;52.560;13.566;2024-01-15T04:35:50;98234.66;;;1.74;100.00
5679;BME280;2862;52.560;13.566;2024-01-15T04:45:58;98222.56;;;1.72;100.00
5679;BME280;2862;52.560;13.566;2024-01-15T04:56:01;98211.34;;;1.70;100.00
5679;BME280;2862;52.560;13.566;2024-01-15T05:06:05;98202.22;;;1.83;100.00
5679;BME280;2862;52.560;13.566;2024-01-15T05:16:09;98203.31;;;1.81;100.00
5679;BME280;2862;52.560;13.566;2024-01-15T05:26:13;98201.56;;;1.91;100.00
5679;BME280;2862;52.560;13.566;2024-01-15T05:36:16;98196.50;;;1.69;100.00
5679;BME280;2862;52.560;13.566;2024-01-15T05:46:20;98168.09;;;1.72;100.00
5679;BME280;2862;52.560;13.566;2024-01-15T05:56:23;98187.25;;;1.84;100.00
5679;BME280;2862;52.560;13.566;2024-01-15T06:06:28;98178.66;;;1.82;100.00
5679;BME280;2862;52.560;13.566;2024-01-15T06:16:31;98194.75;;;1.79;100.00
5679;BME280;2862;52.560;13.566;2024-01-15T06:26:35;98181.56;;;1.79;100.00
5679;BME280;2862;52.560;13.566;2024-01-15T06:36:38;98171.75;;;1.91;100.00
5679;BME280;2862;52.560;13.566;2024-01-15T06:46:43;98170.38;;;1.96;100.00
5679;BME280;2862;52.560;13.566;2024-01-15T06:56:46;98198.91;;;1.91;100.00
5679;BME280;2862;52.560;13.566;2024-01-15T07:06:50;98191.56;;;1.95;100.00
5679;BME280;2862;52.560;13.566;2024-01-15T07:16:53;98220.97;;;2.00;100.00
5679;BME280;2862;52.560;13.566;2024-01-15T07:26:58;98229.59;;;2.02;100.00
5679;BME280;2862;52.560;13.566;2024-01-15T07:37:01;98240.44;;;2.08;100.00
5679;BME280;2862;52.560;13.566;2024-01-15T07:47:05;98248.38;;;2.37;100.00
5679;BME280;2862;52.560;13.566;2024-01-15T07:57:08;98260.88;;;3.97;99.77
5679;BME280;2862;52.560;13.566;2024-01-15T08:07:12;98272.03;;;2.87;98.07
5679;BME280;2862;52.560;13.566;2024-01-15T08:17:15;98248.97;;;2.60;99.25
5679;BME280;2862;52.560;13.566;2024-01-15T08:27:20;98258.66;;;2.50;100.00
5679;BME280;2862;52.560;13.566;2024-01-15T08:37:23;98262.25;;;2.39;98.62
5679;BME280;2862;52.560;13.566;2024-01-15T08:47:27;98263.25;;;2.67;97.05
5679;BME280;2862;52.560;13.566;2024-01-15T08:57:30;98257.84;;;2.50;97.07
5679;BME280;2862;52.560;13.566;2024-01-15T09:07:34;98274.75;;;2.37;99.45
5679;BME280;2862;52.560;13.566;2024-01-15T09:17:36;98276.72;;;2.35;99.37
5679;BME280;2862;52.560;13.566;2024-01-15T09:27:41;98272.81;;;2.30;100.00
5679;BME280;2862;52.560;13.566;2024-01-15T09:37:43;98300.44;;;2.45;100.00
5679;BME280;2862;52.560;13.566;2024-01-15T09:47:48;98297.28;;;2.61;97.77
5679;BME280;2862;52.560;13.566;2024-01-15T09:57:52;98281.59;;;2.79;95.66
5679;BME280;2862;52.560;13.566;2024-01-15T10:07:58;98286.47;;;2.93;94.89
5679;BME280;2862;52.560;13.566;2024-01-15T10:18:03;98276.97;;;3.19;94.21
5679;BME280;2862;52.560;13.566;2024-01-15T10:28:08;98273.09;;;3.24;93.57
5679;BME280;2862;52.560;13.566;2024-01-15T10:38:12;98271.44;;;3.13;93.89
5679;BME280;2862;52.560;13.566;2024-01-15T10:48:21;98252.84;;;2.95;94.64
5679;BME280;2862;52.560;13.566;2024-01-15T10:58:26;98261.44;;;2.97;95.09
5679;BME280;2862;52.560;13.566;2024-01-15T11:08:33;98282.97;;;3.02;94.92
5679;BME280;2862;52.560;13.566;2024-01-15T11:18:39;98268.75;;;3.32;92.60
5679;BME280;2862;52.560;13.566;2024-01-15T11:28:50;98276.56;;;3.24;92.54
5679;BME280;2862;52.560;13.566;2024-01-15T11:38:53;98281.69;;;3.26;92.03
5679;BME280;2862;52.560;13.566;2024-01-15T11:49:03;98277.53;;;3.04;94.37
5679;BME280;2862;52.560;13.566;2024-01-15T11:59:07;98284.78;;;2.92;96.95
5679;BME280;2862;52.560;13.566;2024-01-15T12:09:12;98309.19;;;2.55;100.00
5679;BME280;2862;52.560;13.566;2024-01-15T12:19:15;98312.66;;;2.56;100.00
5679;BME280;2862;52.560;13.566;2024-01-15T12:29:20;98318.09;;;2.54;100.00
5679;BME280;2862;52.560;13.566;2024-01-15T12:39:24;98318.91;;;2.45;100.00
5679;BME280;2862;52.560;13.566;2024-01-15T12:49:28;98326.91;;;2.34;100.00
5679;BME280;2862;52.560;13.566;2024-01-15T12:59:31;98336.03;;;2.20;100.00
5679;BME280;2862;52.560;13.566;2024-01-15T13:09:36;98345.91;;;2.28;100.00
5679;BME280;2862;52.560;13.566;2024-01-15T13:19:39;98348.97;;;2.33;100.00
5679;BME280;2862;52.560;13.566;2024-01-15T13:29:44;98361.09;;;2.35;100.00
5679;BME280;2862;52.560;13.566;2024-01-15T13:39:47;98370.38;;;2.30;100.00
5679;BME280;2862;52.560;13.566;2024-01-15T13:49:51;98382.34;;;2.44;100.00
5679;BME280;2862;52.560;13.566;2024-01-15T13:59:55;98399.28;;;2.41;100.00
5679;BME280;2862;52.560;13.566;2024-01-15T14:09:59;98423.56;;;2.45;100.00
5679;BME280;2862;52.560;13.566;2024-01-15T14:20:03;98434.09;;;2.45;100.00
5679;BME280;2862;52.560;13.566;2024-01-15T14:30:09;98438.28;;;2.47;100.00
5679;BME280;2862;52.560;13.566;2024-01-15T14:40:14;98453.47;;;2.34;100.00
5679;BME280;2862;52.560;13.566;2024-01-15T14:50:19;98464.75;;;2.36;100.00
5679;BME280;2862;52.560;13.566;2024-01-15T15:00:23;98487.44;;;2.27;100.00
5679;BME280;2862;52.560;13.566;2024-01-15T15:10:27;98502.19;;;2.30;99.92
5679;BME280;2862;52.560;13.566;2024-01-15T15:20:30;98513.06;;;2.16;100.00
5679;BME280;2862;52.560;13.566;2024-01-15T15:30:35;98528.88;;;2.16;100.00
5679;BME280;2862;52.560;13.566;2024-01-15T15:40:38;98537.16;;;1.90;100.00
5679;BME280;2862;52.560;13.566;2024-01-15T15:50:41;98550.38;;;1.79;100.00
5679;BME280;2862;52.560;13.566;2024-01-15T16:00:45;98559.13;;;1.79;100.00
5679;BME280;2862;52.560;13.566;2024-01-15T16:10:49;98578.66;;;1.66;100.00
5679;BME280;2862;52.560;13.566;2024-01-15T16:20:53;98602.34;;;1.77;100.00
5679;BME280;2862;52.560;13.566;2024-01-15T16:31:17;98606.78;;;1.76;100.00
5679;BME280;2862;52.560;13.566;2024-01-15T16:41:20;98611.72;;;1.58;100.00
5679;BME280;2862;52.560;13.566;2024-01-15T16:51:24;98628.72;;;1.54;100.00
5679;BME280;2862;52.560;13.566;2024-01-15T17:01:27;98648.03;;;1.55;100.00
5679;BME280;2862;52.560;13.566;2024-01-15T17:11:31;98669.53;;;1.60;100.00
5679;BME280;2862;52.560;13.566;2024-01-15T17:21:35;98692.41;;;1.71;100.00
5679;BME280;2862;52.560;13.566;2024-01-15T17:31:39;98703.66;;;1.95;100.00
5679;BME280;2862;52.560;13.566;2024-01-15T17:41:42;98709.84;;;1.94;100.00
5679;BME280;2862;52.560;13.566;2024-01-15T17:51:47;98706.31;;;1.84;100.00
5679;BME280;2862;52.560;13.566;2024-01-15T18:01:50;98716.94;;;1.82;98.67
5679;BME280;2862;52.560;13.566;2024-01-15T18:11:55;98734.81;;;1.34;94.47
5679;BME280;2862;52.560;13.566;2024-01-15T18:22:02;98749.50;;;1.37;91.09
5679;BME280;2862;52.560;13.566;2024-01-15T18:32:07;98757.19;;;1.40;90.49
5679;BME280;2862;52.560;13.566;2024-01-15T18:42:11;98776.31;;;1.42;87.77
5679;BME280;2862;52.560;13.566;2024-01-15T18:52:16;98794.25;;;1.25;86.54
5679;BME280;2862;52.560;13.566;2024-01-15T19:02:20;98809.22;;;1.25;88.28
5679;BME280;2862;52.560;13.566;2024-01-15T19:12:24;98823.81;;;1.29;86.52
5679;BME280;2862;52.560;13.566;2024-01-15T19:22:27;98836.50;;;1.24;86.12
5679;BME280;2862;52.560;13.566;2024-01-15T19:32:31;98858.31;;;1.48;86.85
5679;BME280;2862;52.560;13.566;2024-01-15T19:42:35;98872.88;;;1.30;83.57
5679;BME280;2862;52.560;13.566;2024-01-15T19:52:40;98889.38;;;1.21;85.26
5679;BME280;2862;52.560;13.566;2024-01-15T20:02:43;98908.13;;;1.16;86.42
5679;BME280;2862;52.560;13.566;2024-01-15T20:12:47;98921.38;;;1.15;86.59
5679;BME280;2862;52.560;13.566;2024-01-15T20:22:50;98951.31;;;1.14;86.94
5679;BME280;2862;52.560;13.566;2024-01-15T20:32:54;98962.84;;;1.24;87.05
5679;BME280;2862;52.560;13.566;2024-01-15T20:42:57;98984.09;;;0.97;84.54
5679;BME280;2862;52.560;13.566;2024-01-15T20:53:01;98986.84;;;0.95;85.52
5679;BME280;2862;52.560;13.566;2024-01-15T21:03:05;99001.81;;;0.95;86.42
5679;BME280;2862;52.560;13.566;2024-01-15T21:13:09;99002.47;;;0.73;83.09
5679;BME280;2862;52.560;13.566;2024-01-15T21:23:12;99016.56;;;0.72;83.83
5679;BME280;2862;52.560;13.566;2024-01-15T21:33:17;99023.75;;;0.70;81.29
5679;BME280;2862;52.560;13.566;2024-01-15T21:43:20;99046.59;;;0.69;82.67
5679;BME280;2862;52.560;13.566;2024-01-15T21:53:24;99065.81;;;0.83;83.06
5679;BME280;2862;52.560;13.566;2024-01-15T22:03:27;99063.59;;;0.89;83.16
5679;BME280;2862;52.560;13.566;2024-01-15T22:13:32;99081.03;;;1.03;83.44
5679;BME280;2862;52.560;13.566;2024-01-15T22:23:35;99092.91;;;1.09;82.34
5679;BME280;2862;52.560;13.566;2024-01-15T22:33:39;99083.13;;;1.11;83.01
5679;BME280;2862;52.560;13.566;2024-01-15T22:43:42;99072.38;;;1.14;82.62
5679;BME280;2862;52.560;13.566;2024-01-15T22:53:47;99085.28;;;0.93;82.11
5679;BME280;2862;52.560;13.566;2024-01-15T23:03:50;99109.47;;;0.98;82.54
5679;BME280;2862;52.560;13.566;2024-01-15T23:13:55;99110.84;;;1.03;82.86
5679;BME280;2862;52.560;13.566;2024-01-15T23:23:58;99115.69;;;1.10;82.61
5679;BME280;2862;52.560;13.566;2024-01-15T23:34:02;99112.41;;;1.06;81.66
5679;BME280;2862;52.560;13.566;2024-01-15T23:44:08;99097.75;;;1.15;79.98
5679;BME280;2862;52.560;13.566;2024-01-15T23:54:13;99113.78;;;0.99;78.84
